Time;durP1;ratioP1;P1;durP2;ratioP2;P2;SDS_P1;SDS_P2;PMS_P1;PMS_P2;Temp;Humidity;BMP_temperature;BMP_pressure;BME280_temperature;BME280_humidity;BME280_pressure;Samples;Min_cycle;Max_cycle;Signal;HPM_P1;HPM_P2
2022/05/23 00:02:16;;;;;;;6.23;2.70;;;;;;;7.77;100.00;96314.34;10365370;28;20193;-72
2022/05/23 00:07:36;;;;;;;2.67;2.30;;;;;;;7.89;100.00;96314.09;10366223;28;20181;-73
2022/05/23 00:12:37;;;;;;;3.17;2.30;;;;;;;8.05;100.00;96303.81;10347859;28;20604;-73
2022/05/23 00:17:37;;;;;;;4.07;2.50;;;;;;;8.13;100.00;96295.25;10347954;28;20259;-74
2022/05/23 00:22:38;;;;;;;5.80;2.40;;;;;;;8.05;100.00;96285.56;10333181;28;20201;-74
2022/05/23 00:27:40;;;;;;;6.80;2.47;;;;;;;8.08;100.00;96281.84;10332725;28;20182;-73
2022/05/23 00:38:08;;;;;;;7.13;2.13;;;;;;;8.04;100.00;96263.06;10287221;28;20751;-74
2022/05/23 00:43:19;;;;;;;4.43;2.60;;;;;;;8.05;100.00;96259.47;10314634;28;20198;-74
2022/05/23 00:48:22;;;;;;;3.43;2.37;;;;;;;7.91;100.00;96252.22;10298512;28;20617;-74
2022/05/23 00:53:32;;;;;;;3.00;2.30;;;;;;;7.92;100.00;96236.41;10332182;28;20218;-74
2022/05/23 00:58:36;;;;;;;3.23;2.43;;;;;;;7.86;100.00;96231.78;10298305;28;20237;-74
2022/05/23 01:03:37;;;;;;;3.27;1.83;;;;;;;7.88;100.00;96232.44;10298069;28;20198;-74
2022/05/23 01:08:42;;;;;;;2.90;2.30;;;;;;;7.84;100.00;96218.91;10315457;28;20186;-74
2022/05/23 01:13:42;;;;;;;4.20;2.60;;;;;;;7.75;100.00;96232.00;10331793;28;20650;-74
2022/05/23 01:18:42;;;;;;;3.93;2.60;;;;;;;7.78;100.00;96221.28;10331088;28;20214;-74
2022/05/23 01:24:00;;;;;;;3.97;2.90;;;;;;;7.77;100.00;96210.03;10313274;28;20293;-73
2022/05/23 01:29:11;;;;;;;3.57;2.23;;;;;;;7.97;100.00;96204.66;10297489;28;20241;-74
2022/05/23 01:34:19;;;;;;;4.33;2.00;;;;;;;7.93;100.00;96195.50;10312737;28;20187;-74
2022/05/23 01:39:33;;;;;;;2.53;2.00;;;;;;;7.88;100.00;96188.13;10311738;28;20237;-73
2022/05/23 01:44:34;;;;;;;4.67;2.20;;;;;;;7.74;100.00;96189.50;10311409;28;20186;-73
2022/05/23 01:49:43;;;;;;;4.60;2.13;;;;;;;7.65;100.00;96182.56;10311374;28;20618;-73
2022/05/23 01:55:01;;;;;;;2.17;1.80;;;;;;;7.65;100.00;96175.56;10311597;28;20320;-74
2022/05/23 02:05:25;;;;;;;4.10;2.13;;;;;;;7.49;100.00;96189.31;10311600;28;20196;-74
2022/05/23 02:10:25;;;;;;;3.43;2.37;;;;;;;7.54;100.00;96193.25;10310969;28;20704;-73
2022/05/23 02:15:28;;;;;;;3.70;2.23;;;;;;;7.47;100.00;96198.22;10311058;28;20200;-74
2022/05/23 02:20:47;;;;;;;4.77;2.20;;;;;;;7.49;100.00;96189.31;10328403;28;20566;-74
2022/05/23 02:25:48;;;;;;;5.33;2.70;;;;;;;7.56;100.00;96196.53;10310922;28;20186;-74
2022/05/23 02:31:12;;;;;;;7.63;2.40;;;;;;;7.57;100.00;96192.94;10327843;28;20247;-73
2022/05/23 02:36:28;;;;;;;2.93;2.23;;;;;;;7.53;100.00;96183.78;10310325;28;20276;-74
2022/05/23 02:41:29;;;;;;;3.57;2.23;;;;;;;7.49;100.00;96185.88;10309920;28;20540;-74
2022/05/23 02:46:29;;;;;;;6.00;2.63;;;;;;;7.56;100.00;96180.88;10310460;28;20197;-74
2022/05/23 02:51:37;;;;;;;4.10;2.30;;;;;;;7.71;100.00;96187.19;10309999;28;20190;-74
2022/05/23 02:56:41;;;;;;;3.70;2.23;;;;;;;7.69;100.00;96170.88;10309666;28;20321;-73
2022/05/23 03:07:12;;;;;;;4.83;2.50;;;;;;;7.51;100.00;96173.50;10307749;28;20194;-74
2022/05/23 03:12:14;;;;;;;4.23;2.23;;;;;;;7.52;100.00;96169.09;10305522;28;20214;-74
2022/05/23 03:17:15;;;;;;;7.20;2.30;;;;;;;7.80;100.00;96152.38;10323109;28;20226;-74
2022/05/23 03:27:38;;;;;;;2.77;1.63;;;;;;;8.30;100.00;96142.22;10291560;28;20558;-74
2022/05/23 03:32:48;;;;;;;2.77;1.70;;;;;;;8.23;100.00;96146.44;10305453;28;20628;-74
2022/05/23 03:37:48;;;;;;;3.80;1.97;;;;;;;8.30;100.00;96142.22;10304995;28;20245;-73
2022/05/23 03:42:49;;;;;;;4.33;2.67;;;;;;;8.52;100.00;96144.28;10305569;28;20190;-74
2022/05/23 03:47:50;;;;;;;3.30;1.93;;;;;;;8.53;100.00;96140.72;10288464;28;20198;-73
2022/05/23 03:52:52;;;;;;;5.10;2.13;;;;;;;8.64;100.00;96146.63;10310477;28;20535;-74
2022/05/23 03:57:59;;;;;;;5.60;2.17;;;;;;;8.76;100.00;96127.09;10318280;28;20241;-74
2022/05/23 04:03:00;;;;;;;4.40;1.77;;;;;;;9.15;100.00;96134.31;10321191;28;20198;-73
2022/05/23 04:08:01;;;;;;;4.33;2.03;;;;;;;9.33;100.00;96139.41;10324093;28;20197;-73
2022/05/23 04:13:11;;;;;;;5.17;2.00;;;;;;;9.20;100.00;96142.47;10324197;28;20189;-73
2022/05/23 04:18:12;;;;;;;5.63;2.43;;;;;;;9.35;100.00;96152.31;10324071;28;20221;-74
2022/05/23 04:23:13;;;;;;;2.73;1.67;;;;;;;9.83;100.00;96145.41;10323933;28;20205;-73
2022/05/23 04:28:15;;;;;;;2.70;1.70;;;;;;;10.31;100.00;96122.72;10323616;28;20221;-74
2022/05/23 04:39:25;;;;;;;5.82;1.83;;;;;;;11.26;98.60;96107.03;10308941;28;20284;-74
2022/05/23 04:44:26;;;;;;;5.95;1.80;;;;;;;11.65;95.41;96092.91;10323389;28;20190;-74
2022/05/23 04:55:08;;;;;;;5.75;1.52;;;;;;;12.27;86.75;96055.84;10340469;28;20248;-74
2022/05/23 05:00:13;;;;;;;4.57;1.90;;;;;;;12.60;83.97;96039.66;10323162;28;20275;-74
2022/05/23 05:05:40;;;;;;;2.78;1.38;;;;;;;12.87;82.19;96024.16;10316651;28;20198;-74
2022/05/23 05:10:40;;;;;;;2.45;1.33;;;;;;;13.19;80.58;96009.66;10334239;28;20264;-73
2022/05/23 05:15:41;;;;;;;2.78;1.27;;;;;;;13.49;78.41;95979.75;10300102;28;20186;-74
2022/05/23 05:20:50;;;;;;;2.55;1.40;;;;;;;13.84;75.83;95956.88;10316383;28;20228;-74
2022/05/23 05:26:26;;;;;;;1.88;1.30;;;;;;;14.03;73.91;95936.09;10333391;28;20186;-75
2022/05/23 05:31:41;;;;;;;5.50;1.30;;;;;;;14.36;73.71;95930.88;10333218;28;20196;-74
2022/05/23 05:36:46;;;;;;;2.20;1.00;;;;;;;14.70;71.03;95887.00;10315642;28;20230;-75
2022/05/23 05:41:52;;;;;;;7.00;2.50;;;;;;;15.09;69.30;95852.88;10332863;28;20237;-75
2022/05/23 05:46:54;;;;;;;7.70;1.80;;;;;;;15.12;68.08;95842.72;10315176;28;20190;-74
2022/05/23 05:52:03;;;;;;;1.70;1.30;;;;;;;15.27;66.79;95826.63;10315330;28;20198;-74
2022/05/23 05:57:22;;;;;;;7.32;1.20;;;;;;;15.55;66.78;95843.19;10301143;28;20287;-75
2022/05/23 06:02:24;;;;;;;4.03;1.10;;;;;;;15.78;66.86;95867.28;10314722;28;20252;-75
2022/05/23 06:12:59;;;;;;;3.70;1.20;;;;;;;15.21;66.86;95882.06;10314518;28;20201;-73
2022/05/23 06:18:29;;;;;;;3.63;1.60;;;;;;;15.15;65.55;95844.13;10365734;28;20209;-73
2022/05/23 06:23:29;;;;;;;2.10;1.15;;;;;;;15.07;65.46;95850.44;10392004;28;20193;-74
2022/05/23 06:28:47;;;;;;;4.70;1.27;;;;;;;14.94;64.61;95819.59;10394349;28;20196;-73
2022/05/23 06:33:49;;;;;;;4.00;1.10;;;;;;;14.95;64.95;95833.63;10394710;28;20659;-73
2022/05/23 06:38:57;;;;;;;4.05;1.00;;;;;;;15.01;64.66;95842.50;10394175;28;20227;-74
2022/05/23 06:44:22;;;;;;;4.03;1.30;;;;;;;15.22;64.76;95850.22;10392993;28;20189;-74
2022/05/23 06:49:41;;;;;;;2.88;1.13;;;;;;;15.26;64.35;95824.22;10410656;28;20271;-74
2022/05/23 06:55:11;;;;;;;3.65;1.00;;;;;;;15.24;63.27;95798.03;10398084;28;20232;-74
2022/05/23 07:00:19;;;;;;;7.50;1.10;;;;;;;15.28;63.00;95809.81;10393212;28;20596;-75
2022/05/23 07:16:17;;;;;;;2.42;1.20;;;;;;;15.74;60.27;95765.69;10356411;28;20858;-75
2022/05/23 07:21:18;;;;;;;5.43;1.42;;;;;;;15.82;61.61;95799.84;10349125;28;20200;-75
2022/05/23 07:26:37;;;;;;;4.03;1.30;;;;;;;16.18;59.42;95764.00;10348837;28;20239;-75
2022/05/23 07:31:38;;;;;;;6.63;1.20;;;;;;;16.23;58.63;95758.09;10366671;28;20189;-75
2022/05/23 07:36:38;;;;;;;1.30;0.95;;;;;;;16.26;57.96;95746.28;10349157;28;20232;-75
2022/05/23 07:41:43;;;;;;;2.85;1.17;;;;;;;16.67;57.94;95763.41;10348445;28;20194;-75
2022/05/23 07:46:44;;;;;;;2.60;1.10;;;;;;;16.87;59.23;95789.69;10349274;28;20243;-75
2022/05/23 07:51:47;;;;;;;1.98;1.08;;;;;;;17.05;57.26;95757.16;10365299;28;20190;-75
2022/05/23 08:02:17;;;;;;;2.08;1.10;;;;;;;17.51;57.20;95758.41;10381594;28;20284;-75
2022/05/23 08:07:34;;;;;;;2.60;1.20;;;;;;;17.75;55.03;95709.00;10389005;28;20837;-75
2022/05/23 08:12:36;;;;;;;2.47;1.15;;;;;;;17.92;55.51;95734.88;10388695;28;20189;-74
2022/05/23 08:17:40;;;;;;;5.45;1.33;;;;;;;17.41;53.67;95663.66;10348332;28;20229;-74
2022/05/23 08:22:55;;;;;;;3.53;1.38;;;;;;;17.57;52.79;95653.44;10385917;28;20221;-74
2022/05/23 08:28:16;;;;;;;4.60;1.40;;;;;;;17.26;55.40;95709.03;10405398;28;20192;-75
2022/05/23 08:33:17;;;;;;;2.35;1.15;;;;;;;17.04;55.10;95710.53;10405654;28;20762;-74
2022/05/23 08:38:18;;;;;;;3.92;1.42;;;;;;;17.51;55.76;95723.19;10392518;28;20311;-74
2022/05/23 08:43:30;;;;;;;2.63;1.33;;;;;;;17.26;53.67;95687.88;10354809;28;20590;-74
2022/05/23 08:48:50;;;;;;;2.80;1.27;;;;;;;17.29;53.17;95658.31;10369251;28;20586;-74
2022/05/23 08:54:14;;;;;;;3.85;1.10;;;;;;;17.34;53.57;95691.25;10356170;28;20237;-74
2022/05/23 08:59:37;;;;;;;4.05;1.63;;;;;;;17.68;52.18;95652.66;10357298;28;20624;-74
2022/05/23 09:04:43;;;;;;;4.60;1.30;;;;;;;17.52;51.71;95616.22;10370856;28;20255;-74
2022/05/23 09:09:43;;;;;;;2.80;1.40;;;;;;;17.33;52.12;95621.59;10371289;28;20583;-74
2022/05/23 09:14:43;;;;;;;7.47;1.80;;;;;;;17.77;52.70;95663.72;10371873;28;20243;-75
2022/05/23 09:19:55;;;;;;;8.30;1.38;;;;;;;17.97;52.06;95645.69;10371334;28;20231;-74
2022/05/23 09:24:58;;;;;;;6.57;1.42;;;;;;;18.68;50.31;95615.66;10370341;28;20197;-74
2022/05/23 09:29:58;;;;;;;2.85;1.30;;;;;;;18.35;50.19;95580.78;10371546;28;20232;-74
2022/05/23 09:35:01;;;;;;;4.75;1.40;;;;;;;19.35;48.86;95571.78;10371219;28;20288;-74
2022/05/23 09:40:04;;;;;;;1.48;1.10;;;;;;;19.10;49.05;95572.97;10370874;28;20221;-74
2022/05/23 09:50:53;;;;;;;11.40;1.63;;;;;;;19.35;49.24;95599.13;10369716;28;20190;-75
2022/05/23 09:55:54;;;;;;;3.28;1.67;;;;;;;19.14;49.30;95579.41;10370150;28;20268;-75
2022/05/23 10:00:58;;;;;;;3.47;1.50;;;;;;;19.72;50.43;95592.56;10352835;28;20281;-75
2022/05/23 10:06:05;;;;;;;4.28;1.70;;;;;;;19.94;49.15;95550.94;10370120;28;20193;-74
2022/05/23 10:11:19;;;;;;;4.97;1.85;;;;;;;19.25;48.61;95508.69;10369548;28;20811;-74
2022/05/23 10:16:26;;;;;;;3.83;1.83;;;;;;;18.87;52.72;95608.38;10370244;28;20209;-75
2022/05/23 10:21:37;;;;;;;5.63;2.10;;;;;;;19.12;51.94;95586.78;10368686;28;20190;-75
2022/05/23 10:27:19;;;;;;;4.15;1.75;;;;;;;19.80;51.55;95584.22;10368974;28;20201;-75
2022/05/23 10:32:37;;;;;;;3.78;1.77;;;;;;;19.25;51.61;95567.91;10367388;28;20209;-75
2022/05/23 10:37:39;;;;;;;5.93;2.53;;;;;;;19.23;51.18;95555.91;10367426;28;20220;-74
2022/05/23 10:42:54;;;;;;;2.65;1.73;;;;;;;18.86;53.80;95594.28;10338494;28;20229;-75
2022/05/23 10:48:05;;;;;;;6.97;2.33;;;;;;;20.09;53.32;95616.00;10327713;28;20228;-75
2022/05/23 10:53:47;;;;;;;3.38;1.92;;;;;;;21.04;50.43;95541.34;10327668;28;20217;-75
2022/05/23 10:58:58;;;;;;;5.70;2.20;;;;;;;20.32;52.24;95564.47;10201500;29;20266;-74
2022/05/23 11:04:31;;;;;;;3.50;1.92;;;;;;;20.27;52.27;95532.47;10363058;28;20197;-74
2022/05/23 11:10:35;;;;;;;5.18;1.88;;;;;;;21.84;49.70;95492.69;10309460;28;20233;-75
2022/05/23 11:15:44;;;;;;;4.63;2.05;;;;;;;20.86;51.46;95510.56;10313746;28;20275;-75
2022/05/23 11:20:47;;;;;;;6.10;2.40;;;;;;;20.51;52.46;95518.94;10346201;28;20654;-75
2022/05/23 11:25:57;;;;;;;3.72;2.03;;;;;;;19.92;52.14;95491.91;10348692;28;20625;-74
2022/05/23 11:36:28;;;;;;;3.97;2.17;;;;;;;19.37;53.62;95513.91;10311558;28;20300;-75
2022/05/23 11:41:41;;;;;;;1.85;1.20;;;;;;;20.31;52.90;95512.31;10309308;28;20316;-76
2022/05/23 11:47:21;;;;;;;5.05;1.95;;;;;;;20.09;51.47;95446.66;10308445;28;20190;-74
2022/05/23 11:52:24;;;;;;;4.03;1.83;;;;;;;19.58;52.69;95430.81;10261228;28;20202;-74
2022/05/23 11:57:36;;;;;;;4.15;1.65;;;;;;;19.52;53.04;95471.66;10325175;28;20241;-75
2022/05/23 12:02:39;;;;;;;3.83;2.25;;;;;;;18.78;55.33;95517.69;10358488;28;20193;-74
2022/05/23 12:07:43;;;;;;;4.45;1.92;;;;;;;19.36;54.91;95546.84;10364198;28;20224;-76
2022/05/23 12:12:47;;;;;;;7.60;2.20;;;;;;;19.86;55.04;95585.91;10366609;28;20275;-76
2022/05/23 12:17:57;;;;;;;4.75;1.95;;;;;;;19.57;55.11;95566.56;10373192;28;20636;-76
2022/05/23 12:23:10;;;;;;;5.53;1.95;;;;;;;19.82;54.80;95568.84;10371715;28;20561;-76
2022/05/23 12:28:16;;;;;;;5.97;2.20;;;;;;;20.27;54.61;95594.44;10338734;28;20182;-76
2022/05/23 12:33:21;;;;;;;6.13;2.35;;;;;;;19.28;56.28;95614.44;10356994;28;20876;-76
2022/05/23 12:38:33;;;;;;;6.13;2.28;;;;;;;19.00;57.84;95641.78;10373389;28;20224;-76
2022/05/23 12:44:11;;;;;;;3.63;2.20;;;;;;;19.45;56.66;95617.13;10373276;28;20197;-75
2022/05/23 12:49:36;;;;;;;6.18;2.50;;;;;;;19.96;56.24;95612.63;10372894;28;20201;-75
2022/05/23 12:54:53;;;;;;;3.67;2.10;;;;;;;18.93;57.39;95598.63;10372423;28;20780;-75
2022/05/23 12:59:53;;;;;;;3.80;2.25;;;;;;;19.10;58.08;95627.91;10372414;28;20252;-75
2022/05/23 13:05:06;;;;;;;3.83;2.40;;;;;;;18.81;57.94;95612.72;10371808;28;20204;-76
2022/05/23 13:10:08;;;;;;;4.47;2.45;;;;;;;18.67;58.70;95620.16;10372386;28;20677;-76
2022/05/23 13:15:09;;;;;;;4.60;2.47;;;;;;;18.71;59.29;95628.44;10370704;28;20189;-75
2022/05/23 13:25:47;;;;;;;5.95;2.33;;;;;;;18.64;59.50;95643.72;10370334;28;20558;-76
2022/05/23 13:30:52;;;;;;;2.60;2.30;;;;;;;18.64;59.64;95644.50;10369856;28;20201;-76
2022/05/23 13:42:30;;;;;;;5.53;2.10;;;;;;;18.42;61.96;95670.81;10352242;28;20197;-77
2022/05/23 13:47:32;;;;;;;6.07;2.30;;;;;;;18.62;67.15;95743.91;10395719;28;20720;-75
2022/05/23 13:52:36;;;;;;;7.28;2.80;;;;;;;17.89;68.68;95748.56;10358795;28;20198;-75
2022/05/23 13:57:44;;;;;;;6.50;2.85;;;;;;;17.64;70.38;95758.25;10253139;28;20720;-75
2022/05/23 14:02:53;;;;;;;3.95;2.80;;;;;;;17.68;68.25;95699.53;10232541;29;20223;-76
2022/05/23 14:07:54;;;;;;;8.45;2.88;;;;;;;17.98;68.26;95700.31;10261533;28;20214;-76
2022/05/23 14:12:57;;;;;;;4.63;2.10;;;;;;;18.20;67.04;95662.63;10312232;28;20958;-75
2022/05/23 14:17:59;;;;;;;10.52;2.67;;;;;;;18.00;66.70;95644.44;10305033;28;20227;-75
2022/05/23 14:23:04;;;;;;;7.57;2.38;;;;;;;18.70;65.14;95616.25;10247621;29;20190;-76
2022/05/23 14:28:08;;;;;;;6.35;2.00;;;;;;;20.73;62.20;95577.50;10248987;28;20202;-75
2022/05/23 14:33:26;;;;;;;3.55;2.20;;;;;;;20.76;58.34;95508.59;10293821;28;20222;-76
2022/05/23 14:38:31;;;;;;;4.88;2.42;;;;;;;20.25;57.27;95476.88;10286333;28;20218;-75
2022/05/23 14:43:34;;;;;;;7.10;2.00;;;;;;;19.66;58.34;95490.69;10286615;28;20198;-75
2022/05/23 14:48:35;;;;;;;6.18;1.90;;;;;;;20.01;58.91;95502.09;10275459;28;20187;-75
2022/05/23 15:04:36;;;;;;;3.75;1.58;;;;;;;20.64;58.03;95491.94;10405943;28;20188;-76
2022/05/23 15:09:37;;;;;;;4.35;2.35;;;;;;;19.96;58.24;95477.06;10406198;28;20195;-75
2022/05/23 15:14:38;;;;;;;6.97;2.47;;;;;;;19.81;58.65;95481.38;10402698;28;20192;-73
2022/05/23 15:19:38;;;;;;;8.55;2.00;;;;;;;19.21;58.97;95462.44;10405762;28;20251;-75
2022/05/23 15:24:38;;;;;;;3.30;1.92;;;;;;;19.01;59.54;95473.53;10405423;28;20727;-75
2022/05/23 15:29:39;;;;;;;2.63;1.85;;;;;;;19.15;60.61;95493.41;10405208;28;20823;-75
2022/05/23 15:34:39;;;;;;;5.38;2.17;;;;;;;19.42;59.48;95471.50;10407449;28;20607;-77
2022/05/23 15:39:43;;;;;;;5.35;2.72;;;;;;;19.32;58.70;95436.84;10407379;28;20587;-76
2022/05/23 15:44:43;;;;;;;6.07;2.17;;;;;;;19.44;58.71;95429.56;10371053;28;20287;-78
2022/05/23 15:49:45;;;;;;;4.53;1.98;;;;;;;19.49;58.67;95410.25;10348209;28;20193;-76
2022/05/23 15:54:45;;;;;;;5.03;1.80;;;;;;;20.04;57.50;95390.75;10366330;28;20700;-76
2022/05/23 15:59:46;;;;;;;7.05;2.28;;;;;;;20.42;55.69;95343.81;10365976;28;20206;-76
2022/05/23 16:04:47;;;;;;;5.60;1.80;;;;;;;19.90;57.44;95363.75;10366285;28;20181;-76
2022/05/23 16:09:47;;;;;;;5.47;1.90;;;;;;;19.84;57.64;95355.97;10392949;28;20192;-77
2022/05/23 16:14:49;;;;;;;4.82;1.92;;;;;;;19.56;57.81;95355.88;10396528;28;20287;-77
2022/05/23 16:19:49;;;;;;;3.28;1.92;;;;;;;19.91;56.91;95333.47;10348069;28;20306;-76
2022/05/23 16:24:52;;;;;;;4.05;1.73;;;;;;;20.25;55.88;95301.38;10332361;28;20340;-75
2022/05/23 16:29:53;;;;;;;7.55;1.80;;;;;;;20.84;54.53;95287.22;10364839;28;20535;-75
2022/05/23 16:40:13;;;;;;;3.38;1.90;;;;;;;20.44;55.59;95291.16;10404431;28;20215;-78
2022/05/23 16:45:13;;;;;;;3.60;1.70;;;;;;;20.26;55.38;95271.06;10370828;28;20189;-77
2022/05/23 16:50:15;;;;;;;3.85;1.85;;;;;;;20.17;55.04;95242.50;10376021;28;20189;-76
2022/05/23 16:55:15;;;;;;;4.43;1.80;;;;;;;20.09;55.57;95244.59;10366259;28;20237;-76
2022/05/23 17:00:16;;;;;;;3.72;1.75;;;;;;;19.88;55.46;95240.94;10371165;28;20221;-76
2022/05/23 17:05:16;;;;;;;3.53;1.98;;;;;;;19.61;56.04;95248.88;10372290;28;20197;-76
2022/05/23 17:10:17;;;;;;;10.52;4.53;;;;;;;19.45;56.48;95247.09;10375333;28;20193;-76
2022/05/23 17:15:18;;;;;;;4.82;2.53;;;;;;;19.52;57.16;95245.84;10374294;28;20197;-76
2022/05/23 17:20:18;;;;;;;8.20;3.05;;;;;;;19.72;56.85;95239.16;10374326;28;20228;-75
2022/05/23 17:25:19;;;;;;;3.63;1.70;;;;;;;19.68;56.71;95232.72;10356981;28;20201;-74
2022/05/23 17:30:20;;;;;;;4.80;1.98;;;;;;;19.35;57.27;95226.56;10373452;28;20228;-75
2022/05/23 17:35:21;;;;;;;6.57;2.10;;;;;;;19.11;57.88;95229.47;10356574;28;20197;-75
2022/05/23 17:40:28;;;;;;;1.98;1.70;;;;;;;19.00;59.31;95239.13;10356329;28;20227;-75
2022/05/23 17:45:29;;;;;;;3.10;2.00;;;;;;;18.97;58.89;95217.63;10376146;28;20188;-74
2022/05/23 17:50:29;;;;;;;3.63;1.67;;;;;;;18.83;59.08;95209.97;10396026;28;20758;-77
2022/05/23 17:55:30;;;;;;;4.88;1.75;;;;;;;18.63;59.50;95191.94;10412884;28;20236;-75
2022/05/23 18:00:31;;;;;;;2.05;1.67;;;;;;;18.51;59.83;95200.03;10410555;28;20290;-75
2022/05/23 18:05:34;;;;;;;4.72;2.00;;;;;;;18.43;60.02;95212.88;10411122;28;20188;-75
2022/05/23 18:10:38;;;;;;;2.67;1.75;;;;;;;18.34;60.49;95241.66;10410427;28;20181;-75
2022/05/23 18:21:01;;;;;;;5.32;2.00;;;;;;;18.25;60.53;95259.78;10413048;28;20580;-76
2022/05/23 18:26:02;;;;;;;2.85;1.60;;;;;;;18.29;60.83;95223.03;10394931;28;20195;-75
2022/05/23 18:31:05;;;;;;;1.98;1.60;;;;;;;18.17;60.82;95168.22;10395490;28;20181;-75
2022/05/23 18:36:05;;;;;;;2.47;1.80;;;;;;;18.11;60.56;95163.91;10412117;28;20645;-75
2022/05/23 18:41:06;;;;;;;9.05;1.80;;;;;;;18.05;60.91;95188.72;10411564;28;20545;-75
2022/05/23 18:46:06;;;;;;;4.72;1.98;;;;;;;17.97;61.29;95181.97;10411941;28;20698;-75
2022/05/23 18:51:07;;;;;;;3.72;1.85;;;;;;;17.83;61.95;95241.59;10411878;28;20684;-75
2022/05/23 18:56:08;;;;;;;4.82;1.90;;;;;;;17.72;62.13;95234.50;10419062;22;20240;-74
2022/05/23 19:01:13;;;;;;;3.22;1.85;;;;;;;17.67;61.99;95234.41;10394048;28;20200;-76
2022/05/23 19:19:04;;;;;;;4.68;2.15;;;;;;;17.68;61.80;95249.28;10398458;28;20239;-75
2022/05/23 19:24:05;;;;;;;7.13;2.20;;;;;;;17.61;62.30;95255.50;10402084;28;20196;-75
2022/05/23 19:29:06;;;;;;;6.47;1.60;;;;;;;17.69;62.04;95258.81;10433722;28;20191;-75
2022/05/23 19:34:06;;;;;;;5.53;1.80;;;;;;;17.64;61.90;95248.91;10410004;28;20188;-75
2022/05/23 19:39:07;;;;;;;6.47;1.90;;;;;;;17.57;62.79;95264.97;10427381;28;20654;-74
2022/05/23 19:44:11;;;;;;;8.77;2.00;;;;;;;17.49;63.58;95286.53;10428297;28;20191;-75
2022/05/23 19:49:11;;;;;;;3.63;2.17;;;;;;;17.42;64.03;95302.53;10430197;28;20189;-74
2022/05/23 19:54:12;;;;;;;2.78;1.70;;;;;;;17.36;64.25;95322.00;10427145;28;20234;-75
2022/05/23 19:59:12;;;;;;;8.00;1.80;;;;;;;17.41;63.33;95295.66;10427646;28;20366;-74
2022/05/23 20:09:42;;;;;;;1.98;1.42;;;;;;;17.53;62.39;95295.59;10343418;28;20218;-74
2022/05/23 20:20:02;;;;;;;4.35;1.65;;;;;;;17.40;63.66;95296.69;10408470;28;20310;-74
2022/05/23 20:25:03;;;;;;;5.00;1.90;;;;;;;17.40;64.30;95294.03;10446069;28;20188;-75
2022/05/23 20:30:05;;;;;;;6.90;1.63;;;;;;;17.39;64.48;95279.16;10450435;28;20188;-74
2022/05/23 20:35:07;;;;;;;3.67;1.75;;;;;;;17.34;65.04;95276.44;10453225;28;20196;-74
2022/05/23 20:40:18;;;;;;;4.90;1.83;;;;;;;17.30;65.62;95283.22;10440336;28;20231;-74
2022/05/23 20:45:20;;;;;;;5.93;1.70;;;;;;;17.25;65.89;95293.72;10458650;28;20187;-75
2022/05/23 20:50:27;;;;;;;3.28;1.63;;;;;;;17.29;66.06;95300.16;10458431;28;20202;-74
2022/05/23 20:55:28;;;;;;;3.65;1.83;;;;;;;17.08;66.83;95297.06;10457853;28;20235;-75
2022/05/23 21:00:29;;;;;;;5.63;2.03;;;;;;;17.10;67.27;95295.00;10457750;28;20216;-74
2022/05/23 21:05:30;;;;;;;5.88;2.13;;;;;;;17.03;67.69;95310.22;10457005;28;20184;-74
2022/05/23 21:10:32;;;;;;;4.72;1.90;;;;;;;17.08;67.65;95293.63;10457555;28;20278;-74
2022/05/23 21:15:36;;;;;;;4.47;2.00;;;;;;;17.07;67.57;95284.88;10456998;28;20184;-75
2022/05/23 21:20:37;;;;;;;8.10;2.13;;;;;;;17.03;67.98;95273.16;10456778;28;20238;-75
2022/05/23 21:25:37;;;;;;;3.42;1.88;;;;;;;17.04;67.94;95250.16;10456901;28;20282;-74
2022/05/23 21:30:39;;;;;;;2.97;1.92;;;;;;;17.13;68.08;95242.66;10456563;28;20194;-74
2022/05/23 21:35:40;;;;;;;3.90;1.70;;;;;;;17.07;68.58;95242.53;10438516;28;20196;-75
2022/05/23 21:51:32;;;;;;;6.10;1.95;;;;;;;17.07;69.65;95220.56;10380973;28;20254;-74
2022/05/23 21:56:34;;;;;;;3.05;1.83;;;;;;;17.06;69.87;95233.00;10415678;28;20236;-73
2022/05/23 22:01:49;;;;;;;3.63;1.98;;;;;;;17.19;69.55;95194.09;10418135;28;20189;-74
2022/05/23 22:06:51;;;;;;;4.78;2.10;;;;;;;17.22;69.42;95210.28;10418264;28;20237;-74
2022/05/23 22:11:51;;;;;;;4.03;2.15;;;;;;;17.23;69.67;95217.19;10395777;28;20188;-74
2022/05/23 22:16:52;;;;;;;6.57;1.95;;;;;;;17.22;70.08;95214.78;10413337;28;20608;-74
2022/05/23 22:21:57;;;;;;;2.90;1.95;;;;;;;17.26;70.29;95216.72;10413031;28;20192;-74
2022/05/23 22:26:58;;;;;;;8.30;2.10;;;;;;;17.32;69.84;95230.06;10413064;28;20184;-74
2022/05/23 22:31:58;;;;;;;5.90;1.83;;;;;;;17.31;69.29;95208.09;10412382;28;20219;-75
2022/05/23 22:36:58;;;;;;;2.63;1.58;;;;;;;17.26;69.86;95208.78;10412796;28;20223;-75
2022/05/23 22:42:02;;;;;;;6.80;2.40;;;;;;;17.33;69.44;95203.34;10411821;28;20296;-75
2022/05/23 22:47:05;;;;;;;4.78;1.83;;;;;;;17.31;69.83;95204.66;10412144;28;20214;-75
2022/05/23 22:52:06;;;;;;;6.35;2.38;;;;;;;17.22;70.51;95247.34;10394378;28;20628;-75
2022/05/23 22:57:09;;;;;;;3.47;2.10;;;;;;;17.38;69.75;95239.69;10411194;28;20355;-75
2022/05/23 23:02:09;;;;;;;4.57;1.92;;;;;;;17.36;69.89;95247.88;10411773;28;20550;-75
2022/05/23 23:07:11;;;;;;;2.53;1.80;;;;;;;17.52;69.50;95235.75;10388072;28;20185;-75
2022/05/23 23:12:12;;;;;;;4.18;1.80;;;;;;;17.53;69.51;95233.91;10352329;28;20675;-75
2022/05/23 23:17:15;;;;;;;6.10;2.30;;;;;;;17.42;70.16;95241.63;10369608;28;20225;-75
2022/05/23 23:22:16;;;;;;;4.05;2.10;;;;;;;17.43;70.57;95250.41;10351967;28;20201;-75
2022/05/23 23:27:16;;;;;;;3.60;2.08;;;;;;;17.45;70.72;95235.88;10369122;28;20196;-75
2022/05/23 23:32:16;;;;;;;4.50;2.13;;;;;;;17.48;70.87;95240.69;10369123;28;20189;-75
2022/05/23 23:42:45;;;;;;;6.60;2.20;;;;;;;17.27;71.93;95247.47;10353873;28;20248;-75
2022/05/23 23:47:47;;;;;;;3.75;2.13;;;;;;;17.25;72.80;95256.66;10368789;28;20198;-75
2022/05/23 23:52:48;;;;;;;4.18;2.20;;;;;;;17.33;72.65;95250.19;10368349;28;20259;-75
2022/05/23 23:57:48;;;;;;;2.45;1.52;;;;;;;17.36;72.53;95250.53;10368267;28;20308;-75
